createdAt,value
2022-10-08T00:01:59.460Z,98350.06
2022-10-08T00:04:29.895Z,98349.28
2022-10-08T00:07:02.554Z,98351.41
2022-10-08T00:09:32.517Z,98340.59
2022-10-08T00:12:02.496Z,98342.94
2022-10-08T00:14:32.522Z,98337.81
2022-10-08T00:17:03.021Z,98342.94
2022-10-08T00:19:33.235Z,98341.53
2022-10-08T00:22:05.919Z,98337.44
2022-10-08T00:24:36.436Z,98337.03
2022-10-08T00:27:06.674Z,98332.72
2022-10-08T00:29:36.769Z,98335.25
2022-10-08T00:32:07.146Z,98341.31
2022-10-08T00:34:37.142Z,98331.25
2022-10-08T00:37:09.866Z,98336.69
2022-10-08T00:39:40.454Z,98339.09
2022-10-08T00:42:12.909Z,98333.16
2022-10-08T00:44:57.911Z,98326.88
2022-10-08T00:47:41.783Z,98334.69
2022-10-08T00:50:21.448Z,98326.94
2022-10-08T00:52:59.478Z,98327.53
2022-10-08T00:55:31.267Z,98333.41
2022-10-08T00:58:09.761Z,98335.91
2022-10-08T01:00:39.784Z,98335.25
2022-10-08T01:03:10.345Z,98333.06
2022-10-08T01:05:55.178Z,98336.22
2022-10-08T01:08:38.921Z,98326.25
2022-10-08T01:11:27.393Z,98329.88
2022-10-08T01:14:11.138Z,98323.06
2022-10-08T01:16:54.262Z,98322.53
2022-10-08T01:19:59.273Z,98325.72
2022-10-08T01:22:53.738Z,98319.47
2022-10-08T01:25:39.795Z,98319.91
2022-10-08T01:28:22.588Z,98311.22
2022-10-08T01:31:00.988Z,98318.31
2022-10-08T01:33:40.961Z,98321.06
2022-10-08T01:36:13.920Z,98320.31
2022-10-08T01:38:50.013Z,98314.25
2022-10-08T01:41:22.993Z,98317.63
2022-10-08T01:44:05.206Z,98318.47
2022-10-08T01:46:41.118Z,98314.88
2022-10-08T01:49:17.502Z,98300.78
2022-10-08T01:51:56.492Z,98299.63
2022-10-08T01:54:31.937Z,98305.13
2022-10-08T01:57:05.814Z,98304.25
2022-10-08T01:59:44.929Z,98307.47
2022-10-08T02:02:23.251Z,98312.94
2022-10-08T02:04:58.422Z,98305.91
2022-10-08T02:07:32.632Z,98300.03
2022-10-08T02:10:11.560Z,98298.63
2022-10-08T02:12:44.225Z,98300.22
2022-10-08T02:15:23.403Z,98295.72
2022-10-08T02:18:07.061Z,98295.91
2022-10-08T02:20:42.545Z,98297.69
2022-10-08T02:23:24.207Z,98298.50
2022-10-08T02:26:00.978Z,98296.16
2022-10-08T02:28:46.081Z,98297.91
2022-10-08T02:31:28.673Z,98294.97
2022-10-08T02:34:09.639Z,98291.81
2022-10-08T02:36:44.705Z,98295.53
2022-10-08T02:39:18.920Z,98287.69
2022-10-08T02:41:58.504Z,98285.13
2022-10-08T02:44:36.958Z,98286.91
2022-10-08T02:47:15.757Z,98289.06
2022-10-08T02:49:54.283Z,98293.22
2022-10-08T02:52:27.243Z,98293.00
2022-10-08T02:55:00.432Z,98290.66
2022-10-08T02:57:40.657Z,98296.56
2022-10-08T03:00:13.831Z,98286.50
2022-10-08T03:02:53.784Z,98293.34
2022-10-08T03:05:24.718Z,98297.69
2022-10-08T03:07:57.555Z,98294.56
2022-10-08T03:10:30.965Z,98298.09
2022-10-08T03:13:04.339Z,98295.72
2022-10-08T03:15:37.318Z,98295.72
2022-10-08T03:18:14.579Z,98302.56
2022-10-08T03:20:50.793Z,98306.91
2022-10-08T03:23:22.138Z,98299.25
2022-10-08T03:25:52.238Z,98299.22
2022-10-08T03:28:22.301Z,98306.91
2022-10-08T03:30:52.461Z,98309.81
2022-10-08T03:33:25.355Z,98307.78
2022-10-08T03:35:55.410Z,98311.19
2022-10-08T03:38:25.387Z,98308.44
2022-10-08T03:40:59.399Z,98313.31
2022-10-08T03:43:35.847Z,98314.91
2022-10-08T03:46:06.849Z,98317.69
2022-10-08T03:48:39.944Z,98320.03
2022-10-08T03:51:14.355Z,98322.00
2022-10-08T03:53:46.907Z,98323.41
2022-10-08T03:56:20.398Z,98323.06
2022-10-08T03:58:56.343Z,98325.16
2022-10-08T04:01:27.073Z,98323.22
2022-10-08T04:03:59.677Z,98323.22
2022-10-08T04:06:29.969Z,98327.59
2022-10-08T04:09:01.176Z,98329.19
2022-10-08T04:11:32.520Z,98333.13
2022-10-08T04:14:03.754Z,98339.22
2022-10-08T04:16:33.792Z,98336.47
2022-10-08T04:19:06.436Z,98341.41
2022-10-08T04:21:36.484Z,98346.31
2022-10-08T04:24:07.058Z,98345.28
2022-10-08T04:26:37.026Z,98351.75
2022-10-08T04:29:08.267Z,98343.16
2022-10-08T04:31:38.269Z,98343.94
2022-10-08T04:34:12.469Z,98342.94
2022-10-08T04:36:42.530Z,98345.09
2022-10-08T04:39:12.632Z,98353.97
2022-10-08T04:41:42.629Z,98350.81
2022-10-08T04:44:12.573Z,98348.66
2022-10-08T04:46:42.644Z,98349.25
2022-10-08T04:49:15.554Z,98349.47
2022-10-08T04:51:45.577Z,98348.88
2022-10-08T04:54:15.602Z,98353.63
2022-10-08T04:56:45.613Z,98348.09
2022-10-08T04:59:15.779Z,98355.38
2022-10-08T05:01:46.348Z,98357.16
2022-10-08T05:04:18.922Z,98367.19
2022-10-08T05:06:48.877Z,98366.19
2022-10-08T05:09:19.150Z,98375.28
2022-10-08T05:11:49.139Z,98374.66
2022-10-08T05:14:19.131Z,98385.09
2022-10-08T05:16:49.122Z,98372.88
2022-10-08T05:19:21.679Z,98379.59
2022-10-08T05:21:51.635Z,98377.22
2022-10-08T05:24:21.730Z,98385.09
2022-10-08T05:26:59.623Z,98372.91
2022-10-08T05:29:30.726Z,98377.63
2022-10-08T05:32:00.826Z,98383.50
2022-10-08T05:34:33.678Z,98383.91
2022-10-08T05:37:03.634Z,98383.53
2022-10-08T05:39:33.594Z,98387.03
2022-10-08T05:42:03.576Z,98384.69
2022-10-08T05:44:37.375Z,98387.44
2022-10-08T05:47:08.124Z,98383.91
2022-10-08T05:49:40.724Z,98393.75
2022-10-08T05:52:10.694Z,98398.50
2022-10-08T05:54:40.725Z,98403.41
2022-10-08T05:57:10.854Z,98406.16
2022-10-08T05:59:40.853Z,98399.06
2022-10-08T06:02:13.286Z,98407.53
2022-10-08T06:04:46.192Z,98404.38
2022-10-08T06:07:16.146Z,98407.53
2022-10-08T06:09:46.486Z,98413.47
2022-10-08T06:12:16.566Z,98415.22
2022-10-08T06:14:46.639Z,98419.56
2022-10-08T06:17:16.601Z,98422.72
2022-10-08T06:19:49.170Z,98426.66
2022-10-08T06:22:19.190Z,98428.41
2022-10-08T06:24:49.211Z,98434.50
2022-10-08T06:27:19.145Z,98441.00
2022-10-08T06:29:49.137Z,98446.72
2022-10-08T06:32:19.110Z,98442.59
2022-10-08T06:34:52.466Z,98450.09
2022-10-08T06:37:22.405Z,98453.03
2022-10-08T06:39:52.386Z,98448.88
2022-10-08T06:42:22.357Z,98455.16
2022-10-08T06:44:52.455Z,98450.38
2022-10-08T06:47:22.593Z,98455.84
2022-10-08T06:49:55.162Z,98458.34
2022-10-08T06:52:25.148Z,98468.72
2022-10-08T06:54:55.200Z,98463.34
2022-10-08T06:57:25.337Z,98466.28
2022-10-08T06:59:57.938Z,98478.59
2022-10-08T07:02:28.266Z,98469.44
2022-10-08T07:05:00.912Z,98477.09
2022-10-08T07:07:31.024Z,98493.41
2022-10-08T07:10:01.085Z,98488.06
2022-10-08T07:12:31.525Z,98495.03
2022-10-08T07:15:01.753Z,98496.88
2022-10-08T07:17:32.255Z,98502.69
2022-10-08T07:20:04.850Z,98504.72
2022-10-08T07:22:34.827Z,98503.19
2022-10-08T07:25:04.765Z,98503.63
2022-10-08T07:27:34.782Z,98512.22
2022-10-08T07:30:04.910Z,98509.69
2022-10-08T07:32:34.984Z,98522.53
2022-10-08T07:35:09.092Z,98515.13
2022-10-08T07:37:39.151Z,98510.88
2022-10-08T07:40:10.890Z,98512.41
2022-10-08T07:42:40.937Z,98516.25
2022-10-08T07:45:12.626Z,98525.41
2022-10-08T07:47:42.598Z,98521.97
2022-10-08T07:50:15.331Z,98527.53
2022-10-08T07:52:45.672Z,98526.41
2022-10-08T07:55:15.785Z,98531.38
2022-10-08T07:57:46.380Z,98524.38
2022-10-08T08:00:16.825Z,98536.13
2022-10-08T08:02:47.348Z,98533.00
2022-10-08T08:05:20.123Z,98527.66
2022-10-08T08:07:53.223Z,98531.47
2022-10-08T08:10:23.565Z,98526.81
2022-10-08T08:12:53.674Z,98533.75
2022-10-08T08:15:23.823Z,98534.66
2022-10-08T08:17:53.788Z,98544.13
2022-10-08T08:20:26.385Z,98524.13
2022-10-08T08:22:56.403Z,98538.81
2022-10-08T08:25:27.668Z,98527.84
2022-10-08T08:27:57.672Z,98536.97
2022-10-08T08:30:27.676Z,98540.13
2022-10-08T08:32:57.662Z,98539.13
2022-10-08T08:35:30.193Z,98535.69
2022-10-08T08:38:00.277Z,98538.41
2022-10-08T08:40:31.071Z,98539.59
2022-10-08T08:43:01.310Z,98545.28
2022-10-08T08:45:46.334Z,98539.88
2022-10-08T08:48:24.026Z,98541.66
2022-10-08T08:51:00.187Z,98552.00
2022-10-08T08:53:31.278Z,98550.16
2022-10-08T08:56:08.179Z,98548.91
2022-10-08T08:58:48.123Z,98547.09
2022-10-08T09:01:28.225Z,98560.03
2022-10-08T09:04:06.989Z,98554.38
2022-10-08T09:06:42.338Z,98548.25
2022-10-08T09:09:27.198Z,98559.34
2022-10-08T09:11:58.281Z,98560.44
2022-10-08T09:14:40.087Z,98558.19
2022-10-08T09:17:19.646Z,98562.28
2022-10-08T09:19:51.944Z,98563.41
2022-10-08T09:22:28.165Z,98555.16
2022-10-08T09:25:03.896Z,98560.16
2022-10-08T09:27:49.682Z,98559.09
2022-10-08T09:30:37.821Z,98560.16
2022-10-08T09:33:22.803Z,98559.34
2022-10-08T09:35:55.236Z,98570.34
2022-10-08T09:38:31.915Z,98574.50
2022-10-08T09:41:05.999Z,98574.09
2022-10-08T09:43:38.033Z,98570.50
2022-10-08T09:46:13.839Z,98573.09
2022-10-08T09:48:45.907Z,98573.63
2022-10-08T09:51:20.289Z,98569.25
2022-10-08T09:53:57.614Z,98572.75
2022-10-08T09:56:32.489Z,98571.03
2022-10-08T09:59:07.076Z,98578.88
2022-10-08T10:01:37.165Z,98575.56
2022-10-08T10:04:07.717Z,98572.19
2022-10-08T10:06:42.399Z,98564.13
2022-10-08T10:09:33.369Z,98565.63
2022-10-08T10:12:14.490Z,98575.38
2022-10-08T10:14:49.065Z,98572.41
2022-10-08T10:17:34.073Z,98567.91
2022-10-08T10:20:08.903Z,98571.84
2022-10-08T10:22:50.973Z,98568.78
2022-10-08T10:25:40.023Z,98572.09
2022-10-08T10:28:18.758Z,98572.84
2022-10-08T10:30:59.945Z,98566.00
2022-10-08T10:33:37.589Z,98563.31
2022-10-08T10:36:16.578Z,98560.84
2022-10-08T10:38:58.842Z,98554.81
2022-10-08T10:41:43.383Z,98570.78
2022-10-08T10:44:16.838Z,98562.75
2022-10-08T10:46:52.434Z,98566.81
2022-10-08T10:49:28.619Z,98570.84
2022-10-08T10:52:22.575Z,98569.84
2022-10-08T10:55:20.785Z,98571.44
2022-10-08T10:58:33.687Z,98569.00
2022-10-08T11:01:17.386Z,98563.34
2022-10-08T11:04:00.674Z,98571.31
2022-10-08T11:07:02.143Z,98570.63
2022-10-08T11:09:48.259Z,98555.34
2022-10-08T11:12:35.292Z,98565.50
2022-10-08T11:15:25.425Z,98561.91
2022-10-08T11:18:21.166Z,98561.28
2022-10-08T11:21:17.165Z,98562.81
2022-10-08T11:24:16.558Z,98558.97
2022-10-08T11:26:58.176Z,98559.16
2022-10-08T11:29:41.553Z,98573.53
2022-10-08T11:32:19.227Z,98563.53
2022-10-08T11:34:57.325Z,98563.69
2022-10-08T11:37:39.047Z,98560.50
2022-10-08T11:40:22.643Z,98565.97
2022-10-08T11:43:04.715Z,98566.91
2022-10-08T11:45:40.003Z,98561.38
2022-10-08T11:48:38.467Z,98559.69
2022-10-08T11:51:41.201Z,98575.66
2022-10-08T11:54:20.049Z,98562.69
2022-10-08T11:56:53.894Z,98563.88
2022-10-08T11:59:43.124Z,98563.91
2022-10-08T12:02:28.765Z,98566.31
2022-10-08T12:05:19.245Z,98572.81
2022-10-08T12:07:54.839Z,98571.28
2022-10-08T12:10:34.468Z,98563.69
2022-10-08T12:13:31.237Z,98565.25
2022-10-08T12:16:07.846Z,98573.22
2022-10-08T12:18:56.142Z,98563.69
2022-10-08T12:21:53.717Z,98567.00
2022-10-08T12:24:58.505Z,98566.22
2022-10-08T12:27:41.244Z,98562.22
2022-10-08T12:30:16.739Z,98557.03
2022-10-08T12:32:59.825Z,98555.25
2022-10-08T12:35:34.442Z,98560.69
2022-10-08T12:38:37.502Z,98562.69
2022-10-08T12:41:25.194Z,98574.16
2022-10-08T12:44:06.466Z,98572.06
2022-10-08T12:46:50.031Z,98568.44
2022-10-08T12:49:32.502Z,98557.59
2022-10-08T12:52:10.378Z,98566.19
2022-10-08T12:54:50.741Z,98572.00
2022-10-08T12:57:30.151Z,98571.63
2022-10-08T13:00:02.543Z,98574.47
2022-10-08T13:02:42.342Z,98576.22
2022-10-08T13:05:29.131Z,98581.03
2022-10-08T13:07:59.558Z,98577.06
2022-10-08T13:10:33.021Z,98576.25
2022-10-08T13:13:05.235Z,98579.19
2022-10-08T13:15:37.699Z,98572.75
2022-10-08T13:18:17.341Z,98578.56
2022-10-08T13:21:00.275Z,98580.03
2022-10-08T13:23:38.388Z,98584.66
2022-10-08T13:26:45.881Z,98571.50
2022-10-08T13:29:34.747Z,98575.31
2022-10-08T13:32:21.463Z,98581.69
2022-10-08T13:34:54.842Z,98590.38
2022-10-08T13:37:36.135Z,98581.25
2022-10-08T13:40:20.069Z,98582.81
2022-10-08T13:42:55.777Z,98582.38
2022-10-08T13:45:29.281Z,98579.94
2022-10-08T13:48:00.279Z,98577.75
2022-10-08T13:50:30.429Z,98574.41
2022-10-08T13:53:04.178Z,98570.59
2022-10-08T13:55:38.200Z,98575.75
2022-10-08T13:58:13.695Z,98569.63
2022-10-08T14:00:46.741Z,98573.53
2022-10-08T14:03:17.690Z,98563.06
2022-10-08T14:05:50.803Z,98567.38
2022-10-08T14:08:26.739Z,98578.81
2022-10-08T14:10:59.080Z,98573.06
2022-10-08T14:13:32.032Z,98568.50
2022-10-08T14:16:02.052Z,98567.41
2022-10-08T14:18:32.070Z,98579.06
2022-10-08T14:21:02.111Z,98569.84
2022-10-08T14:23:32.110Z,98560.72
2022-10-08T14:26:02.137Z,98575.00
2022-10-08T14:28:34.966Z,98574.19
2022-10-08T14:31:05.021Z,98575.31
2022-10-08T14:33:35.347Z,98581.56
2022-10-08T14:36:06.795Z,98574.13
2022-10-08T14:38:36.889Z,98577.78
2022-10-08T14:41:06.965Z,98583.94
2022-10-08T14:43:39.827Z,98579.81
2022-10-08T14:46:10.204Z,98578.13
2022-10-08T14:48:40.208Z,98583.56
2022-10-08T14:51:10.363Z,98587.59
2022-10-08T14:53:40.393Z,98574.53
2022-10-08T14:56:12.946Z,98578.38
2022-10-08T14:58:45.832Z,98578.59
2022-10-08T15:01:15.786Z,98577.53
2022-10-08T15:03:45.972Z,98577.47
2022-10-08T15:06:16.386Z,98581.25
2022-10-08T15:08:49.362Z,98583.09
2022-10-08T15:11:19.453Z,98576.81
2022-10-08T15:13:52.052Z,98567.53
2022-10-08T15:16:22.212Z,98569.09
2022-10-08T15:18:52.328Z,98575.63
2022-10-08T15:21:22.480Z,98570.50
2022-10-08T15:23:52.501Z,98578.91
2022-10-08T15:26:22.503Z,98580.69
2022-10-08T15:28:55.046Z,98588.00
2022-10-08T15:31:28.107Z,98587.28
2022-10-08T15:34:01.746Z,98586.16
2022-10-08T15:36:36.185Z,98588.03
2022-10-08T15:39:11.824Z,98588.69
2022-10-08T15:41:44.859Z,98591.56
2022-10-08T15:44:21.079Z,98597.13
2022-10-08T15:46:59.572Z,98599.75
2022-10-08T15:49:33.209Z,98604.31
2022-10-08T15:52:05.038Z,98599.78
2022-10-08T15:54:37.807Z,98602.72
2022-10-08T15:57:08.970Z,98606.72
2022-10-08T15:59:42.013Z,98614.41
2022-10-08T16:02:17.662Z,98606.56
2022-10-08T16:04:49.973Z,98610.75
2022-10-08T16:07:20.335Z,98614.31
2022-10-08T16:09:50.387Z,98608.81
2022-10-08T16:12:20.359Z,98626.16
2022-10-08T16:14:52.957Z,98626.97
2022-10-08T16:17:22.906Z,98626.56
2022-10-08T16:19:52.914Z,98629.75
2022-10-08T16:22:22.926Z,98632.50
2022-10-08T16:24:53.052Z,98627.38
2022-10-08T16:27:23.027Z,98634.28
2022-10-08T16:29:55.649Z,98635.84
2022-10-08T16:32:25.651Z,98635.88
2022-10-08T16:34:55.615Z,98632.13
2022-10-08T16:37:25.674Z,98626.59
2022-10-08T16:39:56.939Z,98636.81
2022-10-08T16:42:26.956Z,98633.47
2022-10-08T16:44:59.494Z,98637.56
2022-10-08T16:47:29.889Z,98635.75
2022-10-08T16:49:59.996Z,98648.88
2022-10-08T16:52:30.141Z,98652.97
2022-10-08T16:55:00.089Z,98653.91
2022-10-08T16:57:32.293Z,98657.59
2022-10-08T17:00:04.906Z,98663.66
2022-10-08T17:02:35.118Z,98680.13
2022-10-08T17:05:05.139Z,98684.41
2022-10-08T17:07:35.193Z,98680.78
2022-10-08T17:10:05.216Z,98686.53
2022-10-08T17:12:35.160Z,98683.19
2022-10-08T17:15:08.629Z,98690.75
2022-10-08T17:17:38.768Z,98693.94
2022-10-08T17:20:11.258Z,98704.31
2022-10-08T17:22:41.211Z,98700.91
2022-10-08T17:25:12.465Z,98701.28
2022-10-08T17:27:43.094Z,98702.00
2022-10-08T17:30:16.836Z,98704.44
2022-10-08T17:32:47.040Z,98702.81
2022-10-08T17:35:17.585Z,98712.19
2022-10-08T17:37:47.637Z,98707.53
2022-10-08T17:40:17.786Z,98710.97
2022-10-08T17:42:48.181Z,98716.19
2022-10-08T17:45:22.303Z,98719.41
2022-10-08T17:47:52.352Z,98729.53
2022-10-08T17:50:22.365Z,98732.28
2022-10-08T17:52:52.569Z,98730.84
2022-10-08T17:55:22.622Z,98739.41
2022-10-08T17:57:52.779Z,98737.88
2022-10-08T18:00:25.958Z,98746.69
2022-10-08T18:02:56.197Z,98742.63
2022-10-08T18:05:26.623Z,98745.88
2022-10-08T18:07:56.659Z,98760.28
2022-10-08T18:10:26.749Z,98754.91
2022-10-08T18:12:56.787Z,98762.25
2022-10-08T18:15:29.412Z,98762.25
2022-10-08T18:17:59.406Z,98767.00
2022-10-08T18:20:29.650Z,98776.16
2022-10-08T18:22:59.654Z,98771.63
2022-10-08T18:25:29.687Z,98771.78
2022-10-08T18:28:00.028Z,98776.25
2022-10-08T18:30:32.884Z,98778.56
2022-10-08T18:33:02.941Z,98778.78
2022-10-08T18:35:32.951Z,98788.16
2022-10-08T18:38:02.960Z,98794.22
2022-10-08T18:40:33.730Z,98788.81
2022-10-08T18:43:03.718Z,98792.59
2022-10-08T18:45:39.201Z,98786.25
2022-10-08T18:48:09.440Z,98799.03
2022-10-08T18:50:39.421Z,98804.44
2022-10-08T18:53:09.395Z,98808.25
2022-10-08T18:55:39.394Z,98804.56
2022-10-08T18:58:09.398Z,98803.00
2022-10-08T19:00:45.001Z,98807.25
2022-10-08T19:03:14.984Z,98815.59
2022-10-08T19:05:44.990Z,98822.47
2022-10-08T19:08:15.338Z,98817.81
2022-10-08T19:10:45.414Z,98816.09
2022-10-08T19:13:16.046Z,98814.47
2022-10-08T19:15:48.698Z,98823.25
2022-10-08T19:18:18.741Z,98832.50
2022-10-08T19:20:49.689Z,98830.47
2022-10-08T19:23:19.865Z,98833.53
2022-10-08T19:25:49.924Z,98830.34
2022-10-08T19:28:19.933Z,98841.78
2022-10-08T19:30:52.708Z,98842.09
2022-10-08T19:33:22.913Z,98841.19
2022-10-08T19:35:52.890Z,98847.22
2022-10-08T19:38:23.002Z,98843.09
2022-10-08T19:40:52.945Z,98850.88
2022-10-08T19:43:22.914Z,98853.94
2022-10-08T19:45:55.659Z,98852.50
2022-10-08T19:48:25.628Z,98859.50
2022-10-08T19:50:55.986Z,98855.53
2022-10-08T19:53:26.283Z,98865.06
2022-10-08T19:55:56.241Z,98864.56
2022-10-08T19:58:26.230Z,98868.56
2022-10-08T20:01:06.182Z,98877.13
2022-10-08T20:03:37.119Z,98882.06
2022-10-08T20:06:10.086Z,98882.53
2022-10-08T20:08:40.883Z,98886.50
2022-10-08T20:11:13.618Z,98885.84
2022-10-08T20:13:45.799Z,98888.56
2022-10-08T20:16:23.004Z,98888.88
2022-10-08T20:18:55.149Z,98887.47
2022-10-08T20:21:26.206Z,98889.38
2022-10-08T20:23:57.019Z,98888.09
2022-10-08T20:26:30.720Z,98893.81
2022-10-08T20:29:03.707Z,98906.22
2022-10-08T20:31:39.707Z,98894.16
2022-10-08T20:34:14.330Z,98900.66
2022-10-08T20:36:44.471Z,98896.50
2022-10-08T20:39:15.271Z,98902.53
2022-10-08T20:41:45.425Z,98901.09
2022-10-08T20:44:15.840Z,98896.19
2022-10-08T20:46:49.049Z,98900.13
2022-10-08T20:49:19.164Z,98897.91
2022-10-08T20:51:49.474Z,98899.63
2022-10-08T20:54:20.729Z,98896.78
2022-10-08T20:56:50.714Z,98899.94
2022-10-08T20:59:22.818Z,98906.53
2022-10-08T21:01:55.737Z,98905.44
2022-10-08T21:04:25.859Z,98901.59
2022-10-08T21:06:56.143Z,98899.81
2022-10-08T21:09:26.273Z,98904.06
2022-10-08T21:11:56.281Z,98904.84
2022-10-08T21:14:26.479Z,98910.25
2022-10-08T21:16:59.053Z,98907.03
2022-10-08T21:19:29.084Z,98905.13
2022-10-08T21:21:59.041Z,98913.53
2022-10-08T21:24:29.211Z,98905.13
2022-10-08T21:26:59.224Z,98906.34
2022-10-08T21:29:29.357Z,98916.41
2022-10-08T21:32:02.976Z,98911.94
2022-10-08T21:34:33.033Z,98914.47
2022-10-08T21:37:03.175Z,98907.41
2022-10-08T21:39:33.409Z,98911.16
2022-10-08T21:42:03.425Z,98914.59
2022-10-08T21:44:33.416Z,98913.38
2022-10-08T21:47:06.003Z,98916.47
2022-10-08T21:49:36.031Z,98915.03
2022-10-08T21:52:06.062Z,98924.75
2022-10-08T21:54:36.116Z,98922.94
2022-10-08T21:57:06.229Z,98922.94
2022-10-08T21:59:36.369Z,98921.59
2022-10-08T22:02:08.987Z,98920.13
2022-10-08T22:04:39.103Z,98923.88
2022-10-08T22:07:09.081Z,98926.00
2022-10-08T22:09:39.441Z,98920.50
2022-10-08T22:12:09.527Z,98925.22
2022-10-08T22:14:39.802Z,98924.72
2022-10-08T22:17:12.403Z,98918.69
2022-10-08T22:19:42.390Z,98911.44
2022-10-08T22:22:12.382Z,98910.44
2022-10-08T22:24:42.659Z,98920.06
2022-10-08T22:27:12.738Z,98923.53
2022-10-08T22:29:42.709Z,98914.94
2022-10-08T22:32:15.330Z,98915.00
2022-10-08T22:34:45.297Z,98912.25
2022-10-08T22:37:15.355Z,98911.94
2022-10-08T22:39:45.417Z,98913.41
2022-10-08T22:42:15.506Z,98906.25
2022-10-08T22:44:45.542Z,98911.09
2022-10-08T22:47:18.164Z,98911.78
2022-10-08T22:49:48.173Z,98918.97
2022-10-08T22:52:18.670Z,98913.03
2022-10-08T22:54:48.643Z,98906.59
2022-10-08T22:57:18.606Z,98914.56
2022-10-08T22:59:48.537Z,98913.91
2022-10-08T23:02:21.456Z,98914.31
2022-10-08T23:04:51.903Z,98911.19
2022-10-08T23:07:21.912Z,98910.69
2022-10-08T23:09:52.095Z,98909.38
2022-10-08T23:12:22.213Z,98907.03
2022-10-08T23:14:52.274Z,98915.38
2022-10-08T23:17:24.789Z,98908.19
2022-10-08T23:19:54.749Z,98903.63
2022-10-08T23:22:25.160Z,98904.41
2022-10-08T23:24:55.092Z,98901.75
2022-10-08T23:27:25.069Z,98905.25
2022-10-08T23:29:56.191Z,98903.25
2022-10-08T23:32:28.851Z,98904.69
2022-10-08T23:34:58.846Z,98898.06
2022-10-08T23:37:28.966Z,98899.53
2022-10-08T23:39:59.004Z,98900.78
2022-10-08T23:42:29.040Z,98895.03
2022-10-08T23:44:59.120Z,98894.13
2022-10-08T23:47:31.690Z,98896.94
2022-10-08T23:50:01.783Z,98897.09
2022-10-08T23:52:31.797Z,98891.22
2022-10-08T23:55:01.765Z,98892.13
2022-10-08T23:57:31.784Z,98889.50
